Time;durP1;ratioP1;P1;durP2;ratioP2;P2;SDS_P1;SDS_P2;PMS_P1;PMS_P2;Temp;Humidity;BMP_temperature;BMP_pressure;BME280_temperature;BME280_humidity;BME280_pressure;Samples;Min_cycle;Max_cycle;Signal;HPM_P1;HPM_P2
2021/12/21 00:00:46;;;;;;;21.98;6.60;;;;;;;-1.89;87.52;102816.19;5030027;28;20107;-86
2021/12/21 00:03:12;;;;;;;25.15;7.70;;;;;;;-1.91;87.41;102815.19;5024095;28;20045;-86
2021/12/21 00:05:39;;;;;;;22.95;7.03;;;;;;;-1.92;87.94;102822.09;5025007;28;20105;-86
2021/12/21 00:08:09;;;;;;;15.75;6.85;;;;;;;-1.93;87.70;102821.97;5039328;28;20041;-86
2021/12/21 00:10:35;;;;;;;14.90;6.03;;;;;;;-1.95;87.81;102812.41;5024818;28;20037;-86
2021/12/21 00:13:06;;;;;;;19.00;7.15;;;;;;;-1.93;87.57;102812.47;5005842;28;20026;-86
2021/12/21 00:15:50;;;;;;;17.75;6.68;;;;;;;-1.95;87.05;102820.19;5039709;28;20052;-86
2021/12/21 00:23:30;;;;;;;18.05;6.10;;;;;;;-2.02;87.23;102807.66;5039115;28;20115;-86
2021/12/21 00:26:01;;;;;;;20.17;6.55;;;;;;;-2.03;86.98;102800.69;5026780;28;20033;-86
2021/12/21 00:28:31;;;;;;;17.85;6.82;;;;;;;-2.07;87.02;102801.28;5035299;28;20067;-86
2021/12/21 00:30:57;;;;;;;15.20;6.28;;;;;;;-2.07;87.41;102795.19;5023783;28;20048;-86
2021/12/21 00:33:22;;;;;;;15.77;5.80;;;;;;;-2.11;87.37;102788.00;5038846;28;20038;-86
2021/12/21 00:35:48;;;;;;;17.23;6.13;;;;;;;-2.17;87.04;102791.13;5024184;28;20043;-86
2021/12/21 00:38:13;;;;;;;17.67;6.57;;;;;;;-2.21;87.36;102789.16;5023311;28;20021;-85
2021/12/21 00:40:39;;;;;;;17.40;6.07;;;;;;;-2.25;87.19;102790.69;5005367;28;20029;-85
2021/12/21 00:43:04;;;;;;;20.98;7.30;;;;;;;-2.28;87.89;102793.06;5040015;28;20032;-85
2021/12/21 00:45:30;;;;;;;21.45;6.75;;;;;;;-2.29;87.54;102792.97;5039471;28;20163;-85
2021/12/21 00:47:55;;;;;;;17.17;5.82;;;;;;;-2.32;87.10;102787.59;5005155;28;20772;-85
2021/12/21 00:50:22;;;;;;;15.93;5.70;;;;;;;-2.34;87.75;102792.69;5040849;28;20072;-85
2021/12/21 00:52:50;;;;;;;16.17;5.88;;;;;;;-2.34;87.95;102784.03;5038389;28;20024;-85
2021/12/21 00:55:16;;;;;;;15.68;6.32;;;;;;;-2.38;88.03;102785.50;5041572;28;20519;-85
2021/12/21 00:57:42;;;;;;;14.43;6.40;;;;;;;-2.41;88.21;102787.91;5038777;28;20503;-85
2021/12/21 01:00:10;;;;;;;16.77;6.05;;;;;;;-2.48;87.10;102789.22;5042991;28;20128;-85
2021/12/21 01:02:36;;;;;;;17.52;6.03;;;;;;;-2.48;87.69;102781.44;5031194;28;20092;-84
2021/12/21 01:05:04;;;;;;;20.50;6.78;;;;;;;-2.48;87.81;102789.22;5031829;28;20364;-85
2021/12/21 01:07:36;;;;;;;17.70;6.75;;;;;;;-2.50;87.50;102792.53;5030162;28;20048;-85
2021/12/21 01:10:22;;;;;;;15.32;6.57;;;;;;;-2.52;87.97;102792.44;5031009;28;20136;-85
2021/12/21 01:18:15;;;;;;;20.77;6.95;;;;;;;-2.53;88.33;102781.97;5013780;28;20095;-85
2021/12/21 01:20:47;;;;;;;17.48;6.28;;;;;;;-2.52;88.30;102796.72;5014101;28;20133;-84
2021/12/21 01:26:08;;;;;;;17.48;6.30;;;;;;;-2.63;88.41;102783.97;5029176;28;20064;-84
2021/12/21 01:31:45;;;;;;;15.50;6.88;;;;;;;-2.68;88.56;102777.59;5012450;28;20065;-84
2021/12/21 01:34:12;;;;;;;15.73;6.47;;;;;;;-2.71;88.76;102776.53;5016039;28;20045;-84
2021/12/21 01:36:54;;;;;;;19.02;6.65;;;;;;;-2.74;88.59;102778.94;5028903;28;20191;-84
2021/12/21 01:42:20;;;;;;;15.63;7.00;;;;;;;-2.75;88.79;102775.41;5031430;28;20017;-84
2021/12/21 01:49:51;;;;;;;22.08;7.00;;;;;;;-2.83;88.30;102774.94;5029819;28;20048;-84
2021/12/21 01:52:24;;;;;;;18.02;7.78;;;;;;;-2.86;88.26;102766.06;4997490;28;20457;-84
2021/12/21 01:54:50;;;;;;;14.65;6.75;;;;;;;-2.86;88.30;102774.75;5030779;28;20033;-84
2021/12/21 01:57:16;;;;;;;18.40;6.80;;;;;;;-2.82;89.18;102773.22;5029385;28;20075;-84
2021/12/21 01:59:44;;;;;;;17.65;6.70;;;;;;;-2.81;89.69;102772.44;5030971;28;20037;-84
2021/12/21 02:02:13;;;;;;;21.95;7.82;;;;;;;-2.85;89.42;102773.94;5029964;28;20392;-84
2021/12/21 02:04:40;;;;;;;18.85;7.50;;;;;;;-2.84;89.45;102773.16;5034132;28;20186;-84
2021/12/21 02:07:06;;;;;;;19.25;7.65;;;;;;;-2.84;89.71;102769.66;5033432;28;20433;-84
2021/12/21 02:09:38;;;;;;;18.88;8.20;;;;;;;-2.85;89.57;102765.25;5033883;28;20037;-84
2021/12/21 02:12:06;;;;;;;18.00;7.38;;;;;;;-2.90;89.23;102759.78;5016963;28;20037;-84
2021/12/21 02:14:33;;;;;;;15.82;7.03;;;;;;;-2.93;89.79;102745.75;5035148;28;20049;-84
2021/12/21 02:17:19;;;;;;;21.65;7.22;;;;;;;-2.93;89.29;102751.81;5033315;28;20036;-84
2021/12/21 02:20:05;;;;;;;18.92;6.93;;;;;;;-2.95;89.64;102749.94;5033031;28;20037;-84
2021/12/21 02:22:33;;;;;;;19.45;6.95;;;;;;;-2.99;89.40;102751.44;5034158;28;20034;-83
2021/12/21 02:25:31;;;;;;;17.20;7.72;;;;;;;-3.03;89.11;102749.44;5016127;28;20052;-83
2021/12/21 02:27:55;;;;;;;16.05;7.30;;;;;;;-3.01;89.51;102752.16;5003699;28;20426;-83
2021/12/21 02:30:22;;;;;;;23.67;7.60;;;;;;;-3.01;89.35;102754.75;5033900;28;20117;-83
2021/12/21 02:32:48;;;;;;;19.80;8.10;;;;;;;-3.05;89.41;102757.09;5032539;28;20396;-83
2021/12/21 02:35:14;;;;;;;20.95;7.18;;;;;;;-3.09;89.45;102760.31;5033941;28;20042;-83
2021/12/21 02:37:39;;;;;;;21.98;8.13;;;;;;;-3.12;89.71;102756.63;5015778;28;20087;-83
2021/12/21 02:40:06;;;;;;;18.90;7.55;;;;;;;-3.16;89.78;102757.25;5016335;28;20037;-83
2021/12/21 02:42:32;;;;;;;17.17;7.13;;;;;;;-3.16;89.46;102760.72;5015811;28;20029;-83
2021/12/21 02:44:57;;;;;;;18.08;6.85;;;;;;;-3.18;89.20;102758.81;5032606;28;20119;-83
2021/12/21 02:47:23;;;;;;;19.98;8.27;;;;;;;-3.19;89.10;102746.66;4999605;28;20079;-83
2021/12/21 02:49:49;;;;;;;18.60;6.93;;;;;;;-3.20;89.45;102748.34;5032346;28;20041;-83
2021/12/21 02:52:14;;;;;;;19.45;8.98;;;;;;;-3.20;89.40;102744.88;5032227;28;20041;-83
2021/12/21 02:54:40;;;;;;;22.00;7.80;;;;;;;-3.27;89.34;102736.69;5033721;28;20065;-82
2021/12/21 02:57:06;;;;;;;21.80;7.78;;;;;;;-3.27;89.59;102744.47;5032023;28;20100;-83
2021/12/21 02:59:31;;;;;;;18.48;6.95;;;;;;;-3.30;89.69;102752.03;5031764;28;20045;-83
2021/12/21 03:01:57;;;;;;;18.23;7.47;;;;;;;-3.32;89.32;102743.25;5031480;28;20373;-83
2021/12/21 03:04:23;;;;;;;22.08;8.43;;;;;;;-3.34;89.42;102739.69;5033402;28;20034;-83
2021/12/21 03:09:37;;;;;;;23.48;7.72;;;;;;;-3.30;89.44;102733.00;5032879;28;20046;-83
2021/12/21 03:12:15;;;;;;;20.83;8.35;;;;;;;-3.29;89.50;102738.31;5031179;28;20408;-83
2021/12/21 03:14:41;;;;;;;25.02;8.27;;;;;;;-3.29;89.51;102732.19;5032195;28;20042;-83
2021/12/21 03:17:08;;;;;;;20.70;7.40;;;;;;;-3.29;89.81;102733.13;5032881;28;20047;-83
2021/12/21 03:19:34;;;;;;;24.02;7.97;;;;;;;-3.30;89.93;102730.41;5031571;28;20508;-82
2021/12/21 03:22:00;;;;;;;19.27;8.13;;;;;;;-3.30;90.24;102740.78;5031236;28;20076;-82
2021/12/21 03:24:25;;;;;;;19.45;8.57;;;;;;;-3.32;90.40;102739.78;5031279;28;20132;-82
2021/12/21 03:26:51;;;;;;;21.98;7.97;;;;;;;-3.34;90.34;102741.38;5014574;28;20017;-83
2021/12/21 03:29:17;;;;;;;15.68;8.18;;;;;;;-3.39;89.68;102735.88;5032568;28;20167;-82
2021/12/21 03:31:43;;;;;;;17.02;7.07;;;;;;;-3.43;90.16;102733.91;5032435;28;20061;-83
2021/12/21 03:34:09;;;;;;;15.95;7.47;;;;;;;-3.47;89.70;102729.31;5031142;28;20052;-83
2021/12/21 03:36:35;;;;;;;20.83;7.88;;;;;;;-3.45;89.67;102738.09;5031008;28;20033;-83
2021/12/21 03:39:10;;;;;;;21.25;8.50;;;;;;;-3.46;90.53;102734.63;5014448;28;20068;-83
2021/12/21 03:41:39;;;;;;;18.13;7.53;;;;;;;-3.47;89.92;102735.38;5030962;28;20478;-82
2021/12/21 03:44:05;;;;;;;14.07;7.35;;;;;;;-3.49;90.30;102738.69;5032516;28;20041;-82
2021/12/21 03:46:34;;;;;;;19.02;6.75;;;;;;;-3.47;89.96;102737.09;5031073;28;20097;-82
2021/12/21 03:49:08;;;;;;;20.83;8.45;;;;;;;-3.48;90.67;102728.44;5014370;28;20288;-82
2021/12/21 03:51:34;;;;;;;21.52;8.93;;;;;;;-3.51;90.26;102725.66;5030747;28;20071;-82
2021/12/21 03:53:59;;;;;;;22.15;8.43;;;;;;;-3.53;90.31;102722.06;4998139;28;20029;-82
2021/12/21 03:56:39;;;;;;;16.42;8.02;;;;;;;-3.55;89.91;102723.63;5014427;28;20041;-82
2021/12/21 03:59:05;;;;;;;16.30;6.85;;;;;;;-3.52;90.42;102721.25;5030824;28;20077;-82
2021/12/21 04:01:30;;;;;;;24.52;8.35;;;;;;;-3.50;90.83;102730.00;5030630;28;20500;-82
2021/12/21 04:03:56;;;;;;;18.65;8.10;;;;;;;-3.47;90.78;102732.78;4997949;28;20038;-82
2021/12/21 04:06:22;;;;;;;19.88;8.80;;;;;;;-3.48;90.67;102724.94;5032016;28;20032;-82
2021/12/21 04:08:47;;;;;;;22.73;8.77;;;;;;;-3.51;90.61;102723.06;5014185;28;20044;-82
2021/12/21 04:11:13;;;;;;;17.90;7.55;;;;;;;-3.52;90.84;102722.94;5013961;28;20348;-82
2021/12/21 04:13:38;;;;;;;20.23;7.70;;;;;;;-3.53;90.43;102713.38;5014059;28;20107;-82
2021/12/21 04:16:05;;;;;;;27.05;9.10;;;;;;;-3.53;90.62;102713.38;5014145;28;20045;-82
2021/12/21 04:18:36;;;;;;;23.13;8.98;;;;;;;-3.51;90.51;102717.88;5030229;28;20029;-82
2021/12/21 04:21:03;;;;;;;23.38;8.10;;;;;;;-3.52;90.46;102721.25;5031704;28;20037;-82
2021/12/21 04:23:29;;;;;;;17.90;8.45;;;;;;;-3.54;90.67;102721.94;5029985;28;20033;-82
2021/12/21 04:25:54;;;;;;;28.02;9.15;;;;;;;-3.56;90.23;102715.75;5030309;28;20037;-82
2021/12/21 04:28:19;;;;;;;21.10;8.52;;;;;;;-3.57;90.45;102724.34;5030581;28;20033;-82
2021/12/21 04:30:45;;;;;;;20.92;8.85;;;;;;;-3.61;90.35;102731.03;5049848;28;20554;-82
2021/12/21 04:33:10;;;;;;;19.95;8.52;;;;;;;-3.65;90.93;102718.66;5033167;28;20048;-82
2021/12/21 04:35:36;;;;;;;22.23;8.50;;;;;;;-3.67;91.21;102725.41;5049994;28;20182;-81
2021/12/21 04:38:19;;;;;;;26.05;8.75;;;;;;;-3.68;91.01;102724.53;5050018;28;20484;-82
2021/12/21 04:40:47;;;;;;;21.10;8.90;;;;;;;-3.72;90.94;102717.34;5051197;28;20036;-82
2021/12/21 04:43:13;;;;;;;22.30;8.50;;;;;;;-3.70;90.57;102720.03;5051156;28;20104;-82
2021/12/21 04:45:39;;;;;;;22.05;9.20;;;;;;;-3.72;90.56;102716.44;5049516;28;20063;-82
2021/12/21 04:48:04;;;;;;;18.65;8.55;;;;;;;-3.70;90.77;102713.16;5033210;28;20453;-82
2021/12/21 04:50:30;;;;;;;19.42;8.63;;;;;;;-3.72;90.61;102709.56;5049446;28;20040;-81
2021/12/21 04:52:56;;;;;;;21.10;8.07;;;;;;;-3.67;90.81;102707.28;5049448;28;20068;-82
2021/12/21 04:55:21;;;;;;;20.58;8.65;;;;;;;-3.67;90.79;102710.78;5050075;28;20057;-82
2021/12/21 04:57:47;;;;;;;22.60;8.82;;;;;;;-3.69;90.63;102714.06;5049346;28;20025;-82
2021/12/21 05:00:13;;;;;;;23.45;8.63;;;;;;;-3.71;90.76;102715.66;5032871;28;20399;-81
2021/12/21 05:02:39;;;;;;;22.05;9.43;;;;;;;-3.77;90.52;102712.66;5049182;28;20032;-82
2021/12/21 05:05:06;;;;;;;26.27;9.13;;;;;;;-3.81;90.80;102706.38;5050980;28;20029;-81
2021/12/21 05:07:34;;;;;;;15.32;8.20;;;;;;;-3.82;90.89;102708.88;5048961;28;20052;-81
2021/12/21 05:10:01;;;;;;;18.27;8.40;;;;;;;-3.85;90.60;102706.09;5050805;28;20036;-82
2021/12/21 05:12:27;;;;;;;21.40;9.85;;;;;;;-3.84;90.47;102711.34;5049195;28;20583;-81
2021/12/21 05:14:55;;;;;;;15.85;8.52;;;;;;;-3.83;90.88;102709.66;5049160;28;20341;-82
2021/12/21 05:17:21;;;;;;;26.95;8.95;;;;;;;-3.84;90.58;102708.75;5032662;28;20025;-81
2021/12/21 05:19:46;;;;;;;24.77;8.73;;;;;;;-3.86;90.78;102709.44;5049171;28;20067;-82
2021/12/21 05:22:12;;;;;;;16.55;9.18;;;;;;;-3.93;90.58;102706.47;5032588;28;20457;-82
2021/12/21 05:24:39;;;;;;;21.17;9.15;;;;;;;-3.93;91.01;102719.41;5016189;28;20587;-81
2021/12/21 05:27:05;;;;;;;21.42;9.13;;;;;;;-3.96;90.85;102726.94;5042176;28;20037;-81
2021/12/21 05:29:32;;;;;;;16.55;8.63;;;;;;;-3.98;91.07;102719.88;5012916;28;20062;-81
2021/12/21 05:31:59;;;;;;;20.10;8.52;;;;;;;-3.98;90.81;102725.06;5029192;28;20434;-81
2021/12/21 05:34:25;;;;;;;17.02;7.88;;;;;;;-4.02;90.66;102711.03;5029162;28;20144;-81
2021/12/21 05:36:51;;;;;;;18.77;9.13;;;;;;;-4.01;90.70;102717.09;5012393;28;20041;-81
2021/12/21 05:39:21;;;;;;;17.90;9.10;;;;;;;-4.03;90.62;102713.50;5029246;28;20061;-82
2021/12/21 05:41:50;;;;;;;22.90;10.02;;;;;;;-4.02;90.81;102717.91;5013192;28;20087;-81
2021/12/21 05:44:18;;;;;;;17.95;8.50;;;;;;;-4.04;91.22;102720.38;5029156;28;20025;-81
2021/12/21 05:46:44;;;;;;;19.83;8.27;;;;;;;-4.05;90.96;102715.09;5029070;28;20373;-81
2021/12/21 05:49:09;;;;;;;31.38;13.98;;;;;;;-4.09;90.61;102716.56;5028805;28;20033;-81
2021/12/21 05:51:35;;;;;;;26.10;10.85;;;;;;;-4.11;90.53;102713.88;5029924;28;20088;-82
2021/12/21 05:54:00;;;;;;;21.63;9.65;;;;;;;-4.16;90.66;102715.25;5028961;28;20031;-81
2021/12/21 05:56:25;;;;;;;17.95;8.43;;;;;;;-4.16;90.55;102727.28;5028723;28;20113;-81
2021/12/21 05:58:51;;;;;;;25.20;9.10;;;;;;;-4.22;90.75;102720.03;5018011;28;20483;-81
2021/12/21 06:01:17;;;;;;;22.80;9.52;;;;;;;-4.23;90.82;102714.72;5048405;28;20037;-81
2021/12/21 06:03:43;;;;;;;19.30;8.55;;;;;;;-4.23;90.76;102720.78;5028484;28;20072;-81
2021/12/21 06:06:13;;;;;;;23.63;10.40;;;;;;;-4.22;91.24;102719.13;5028660;28;20033;-81
2021/12/21 06:08:39;;;;;;;34.17;13.93;;;;;;;-4.24;91.11;102721.59;5029079;28;20037;-81
2021/12/21 06:11:06;;;;;;;30.27;11.70;;;;;;;-4.24;90.95;102719.00;5028585;28;20033;-81
2021/12/21 06:27:01;;;;;;;22.27;9.90;;;;;;;-4.29;90.89;102727.25;5036232;28;20044;-81
2021/12/21 06:29:27;;;;;;;23.50;9.88;;;;;;;-4.31;90.74;102721.97;5048728;28;20033;-81
2021/12/21 06:31:53;;;;;;;27.08;9.15;;;;;;;-4.34;91.22;102727.84;5048170;28;20063;-81
2021/12/21 06:34:19;;;;;;;20.33;9.13;;;;;;;-4.36;91.50;102718.16;5048538;28;20037;-81
2021/12/21 06:36:45;;;;;;;18.98;8.25;;;;;;;-4.39;91.27;102710.22;5048324;28;20094;-81
2021/12/21 06:39:10;;;;;;;20.88;9.15;;;;;;;-4.41;90.87;102707.50;5031624;28;20025;-81
2021/12/21 06:41:37;;;;;;;18.52;9.10;;;;;;;-4.43;91.15;102709.09;5031696;28;20044;-81
2021/12/21 06:44:04;;;;;;;25.33;9.55;;;;;;;-4.41;91.23;102711.78;5042331;28;20021;-81
2021/12/21 06:47:06;;;;;;;16.02;8.18;;;;;;;-4.42;91.23;102716.06;5039287;28;20044;-81
2021/12/21 06:52:05;;;;;;;16.58;8.93;;;;;;;-4.43;91.33;102719.44;5051919;28;20460;-81
2021/12/21 06:54:31;;;;;;;23.35;9.45;;;;;;;-4.46;91.08;102720.91;5035180;28;20044;-81
2021/12/21 06:56:57;;;;;;;21.98;10.63;;;;;;;-4.48;90.99;102725.09;5051398;28;20041;-81
2021/12/21 06:59:22;;;;;;;23.13;9.93;;;;;;;-4.53;90.94;102720.47;5043153;28;20104;-81
2021/12/21 07:01:49;;;;;;;15.90;8.52;;;;;;;-4.54;91.12;102715.22;5031618;28;20069;-81
2021/12/21 07:04:17;;;;;;;18.80;8.73;;;;;;;-4.56;91.46;102719.38;5015222;28;20457;-81
2021/12/21 07:06:45;;;;;;;25.48;9.90;;;;;;;-4.58;91.16;102720.97;5015674;28;20064;-81
2021/12/21 07:09:24;;;;;;;28.17;9.38;;;;;;;-4.57;91.40;102722.78;5015287;28;20547;-81
2021/12/21 07:20:04;;;;;;;22.00;9.90;;;;;;;-4.66;91.00;102729.88;5032929;28;20038;-80
2021/12/21 07:22:30;;;;;;;20.60;8.82;;;;;;;-4.70;90.64;102722.69;5014922;28;20037;-81
2021/12/21 07:24:55;;;;;;;24.35;8.75;;;;;;;-4.71;90.41;102718.31;5032806;28;20087;-80
2021/12/21 07:27:20;;;;;;;25.17;10.52;;;;;;;-4.71;90.64;102729.56;5023454;28;20184;-81
2021/12/21 07:29:48;;;;;;;24.60;8.52;;;;;;;-4.72;90.71;102729.44;5034620;28;20144;-81
2021/12/21 07:32:13;;;;;;;20.90;9.25;;;;;;;-4.70;91.20;102733.91;5050728;28;20041;-81
2021/12/21 07:34:39;;;;;;;22.48;9.40;;;;;;;-4.69;91.27;102730.56;5051327;28;20045;-81
2021/12/21 07:37:06;;;;;;;29.08;10.77;;;;;;;-4.70;91.37;102726.16;5050775;28;20032;-81
2021/12/21 07:39:31;;;;;;;20.25;8.73;;;;;;;-4.69;91.42;102740.00;5051308;28;20037;-81
2021/12/21 07:41:57;;;;;;;22.30;9.63;;;;;;;-4.69;91.18;102745.19;5032557;28;20492;-81
2021/12/21 07:44:23;;;;;;;22.63;9.55;;;;;;;-4.73;90.83;102740.56;5030952;28;20460;-80
2021/12/21 07:46:48;;;;;;;21.30;9.00;;;;;;;-4.73;90.82;102744.03;5036885;28;20055;-81
2021/12/21 07:49:14;;;;;;;18.45;8.70;;;;;;;-4.72;91.05;102747.53;5052220;28;20029;-80
2021/12/21 07:51:40;;;;;;;19.63;9.02;;;;;;;-4.73;90.97;102745.75;5050737;28;20048;-80
2021/12/21 07:54:05;;;;;;;18.85;8.38;;;;;;;-4.71;90.98;102752.81;5050558;28;20041;-80
2021/12/21 07:56:31;;;;;;;22.00;9.90;;;;;;;-4.72;90.73;102753.63;5052198;28;20052;-80
2021/12/21 07:58:56;;;;;;;27.77;9.13;;;;;;;-4.74;91.29;102741.38;5030533;28;20087;-80
2021/12/21 08:01:22;;;;;;;19.52;8.43;;;;;;;-4.75;90.85;102745.63;5040555;28;20036;-81
2021/12/21 08:03:48;;;;;;;17.05;8.30;;;;;;;-4.78;90.93;102754.06;5052078;28;20044;-81
2021/12/21 08:06:14;;;;;;;15.32;8.05;;;;;;;-4.74;91.35;102756.88;5050448;28;20038;-81
2021/12/21 08:08:43;;;;;;;17.95;8.63;;;;;;;-4.74;91.25;102751.72;5051949;28;20033;-81
2021/12/21 08:11:28;;;;;;;19.60;9.18;;;;;;;-4.70;91.73;102752.00;5050512;28;20444;-80
2021/12/21 08:13:54;;;;;;;16.52;9.05;;;;;;;-4.69;91.26;102734.84;5051825;28;20037;-80
2021/12/21 08:16:20;;;;;;;22.52;8.98;;;;;;;-4.71;91.06;102744.16;5050309;28;20041;-80
2021/12/21 08:18:45;;;;;;;20.95;9.27;;;;;;;-4.67;91.12;102753.91;5033445;28;20043;-81
2021/12/21 08:21:15;;;;;;;21.67;9.77;;;;;;;-4.65;91.58;102742.91;5050199;28;20025;-81
2021/12/21 08:23:41;;;;;;;16.92;8.90;;;;;;;-4.60;91.46;102744.16;5049837;28;20179;-80
2021/12/21 08:26:06;;;;;;;23.73;9.43;;;;;;;-4.55;91.86;102749.59;5051521;28;20116;-80
2021/12/21 08:28:32;;;;;;;20.25;9.38;;;;;;;-4.53;91.78;102742.84;5029785;28;20053;-80
2021/12/21 08:30:58;;;;;;;20.50;9.05;;;;;;;-4.45;91.63;102741.72;5030145;28;20056;-80
2021/12/21 08:33:23;;;;;;;23.38;10.85;;;;;;;-4.38;92.20;102751.69;5031401;28;20033;-80
2021/12/21 08:35:49;;;;;;;26.05;10.35;;;;;;;-4.37;91.87;102750.91;5031848;28;20061;-80
2021/12/21 08:38:17;;;;;;;20.77;10.00;;;;;;;-4.30;92.21;102751.31;5029905;28;20037;-80
2021/12/21 08:40:48;;;;;;;23.30;10.73;;;;;;;-4.23;92.34;102753.53;5030036;28;20100;-81
2021/12/21 08:43:20;;;;;;;18.10;9.85;;;;;;;-4.19;92.14;102761.63;5031433;28;20038;-81
2021/12/21 08:45:48;;;;;;;22.70;10.85;;;;;;;-4.15;92.20;102757.56;5031472;28;20029;-81
2021/12/21 08:48:14;;;;;;;26.58;11.13;;;;;;;-4.11;92.53;102760.44;5030018;28;20033;-82
2021/12/21 08:50:41;;;;;;;24.30;11.70;;;;;;;-4.03;92.91;102768.75;5030237;28;20102;-81
2021/12/21 08:53:06;;;;;;;19.75;11.13;;;;;;;-3.97;92.73;102765.69;5031614;28;20068;-81
2021/12/21 08:55:32;;;;;;;27.05;11.50;;;;;;;-3.89;92.77;102767.97;5029985;28;20064;-81
2021/12/21 08:57:58;;;;;;;23.67;10.82;;;;;;;-3.84;92.48;102763.13;5013310;28;20115;-81
2021/12/21 09:00:24;;;;;;;26.40;10.70;;;;;;;-3.78;92.72;102773.91;5028010;28;20153;-81
2021/12/21 09:02:50;;;;;;;27.15;12.10;;;;;;;-3.71;93.29;102777.78;5029623;28;20119;-81
2021/12/21 09:05:19;;;;;;;24.55;10.68;;;;;;;-3.64;93.07;102772.22;5029849;28;20034;-82
2021/12/21 09:07:50;;;;;;;30.38;11.77;;;;;;;-3.55;93.02;102771.97;5029573;28;20091;-82
2021/12/21 09:10:18;;;;;;;23.77;10.60;;;;;;;-3.47;93.29;102770.75;5013756;28;20551;-82
2021/12/21 09:12:44;;;;;;;33.97;11.70;;;;;;;-3.36;93.59;102776.63;4995966;28;20032;-82
2021/12/21 09:15:10;;;;;;;28.70;11.68;;;;;;;-3.30;93.41;102766.69;5031139;28;20034;-82
2021/12/21 09:17:36;;;;;;;28.65;13.30;;;;;;;-3.23;93.27;102768.00;5030628;28;20057;-82
2021/12/21 09:20:06;;;;;;;28.88;12.45;;;;;;;-3.15;93.26;102770.28;5013251;28;20496;-82
2021/12/21 09:22:31;;;;;;;28.80;11.40;;;;;;;-3.06;93.90;102772.59;5029490;28;20116;-83
2021/12/21 09:24:58;;;;;;;24.25;12.55;;;;;;;-2.99;93.58;102763.47;5031101;28;20025;-83
2021/12/21 09:27:25;;;;;;;30.75;13.23;;;;;;;-2.91;93.48;102755.41;5040218;28;20044;-83
2021/12/21 09:29:50;;;;;;;29.63;12.27;;;;;;;-2.81;93.67;102760.38;5049025;28;20024;-82
2021/12/21 09:32:18;;;;;;;33.00;12.75;;;;;;;-2.72;93.37;102765.25;5049509;28;20126;-83
2021/12/21 09:34:45;;;;;;;29.13;13.02;;;;;;;-2.65;93.40;102750.97;5049061;28;20056;-83
2021/12/21 09:37:19;;;;;;;25.95;12.55;;;;;;;-2.55;93.34;102753.31;5032956;28;20484;-83
2021/12/21 09:39:48;;;;;;;33.42;13.25;;;;;;;-2.46;93.81;102748.72;5049067;28;20037;-83
2021/12/21 09:42:17;;;;;;;28.30;12.93;;;;;;;-2.38;93.79;102750.06;5049136;28;20087;-83
2021/12/21 09:44:43;;;;;;;26.15;12.98;;;;;;;-2.30;93.24;102739.25;5049184;28;20055;-84
2021/12/21 09:47:10;;;;;;;25.58;13.20;;;;;;;-2.21;93.50;102745.03;5015893;28;20060;-84
2021/12/21 09:49:37;;;;;;;25.70;13.23;;;;;;;-2.12;93.20;102744.69;5050407;28;20030;-84
2021/12/21 09:52:05;;;;;;;28.40;13.55;;;;;;;-2.04;93.16;102748.66;5032283;28;20021;-85
2021/12/21 09:54:33;;;;;;;31.52;12.07;;;;;;;-1.95;92.75;102742.31;5049359;28;20040;-84
2021/12/21 09:56:58;;;;;;;33.80;13.52;;;;;;;-1.87;92.77;102740.16;5032281;28;20099;-85
2021/12/21 09:59:25;;;;;;;30.13;12.85;;;;;;;-1.77;92.78;102739.91;5038453;28;20477;-84
2021/12/21 10:01:50;;;;;;;27.35;12.90;;;;;;;-1.68;92.65;102742.16;5012802;28;20412;-85
2021/12/21 10:04:17;;;;;;;34.50;13.18;;;;;;;-1.59;92.54;102741.78;5028942;28;20059;-85
2021/12/21 10:06:48;;;;;;;32.00;12.27;;;;;;;-1.55;92.54;102729.06;5029084;28;20052;-85
2021/12/21 10:09:14;;;;;;;;;;;;;;;-1.40;92.69;102744.63;5029346;28;20037;-85
2021/12/21 10:11:43;;;;;;;31.42;12.73;;;;;;;-1.32;92.19;102740.75;5012680;28;19925;-85
2021/12/21 10:14:09;;;;;;;33.05;13.43;;;;;;;-1.20;91.84;102739.69;5028945;28;20039;-85
2021/12/21 10:16:35;;;;;;;26.25;14.20;;;;;;;-1.09;91.48;102736.88;5029211;28;20112;-85
2021/12/21 10:19:00;;;;;;;31.35;13.02;;;;;;;-1.00;91.40;102727.78;5045495;28;20507;-85
2021/12/21 10:21:26;;;;;;;33.55;13.20;;;;;;;-0.92;91.15;102718.69;5012396;28;20088;-85
2021/12/21 10:23:52;;;;;;;30.40;13.38;;;;;;;-0.85;90.51;102715.63;5014031;28;20037;-86
2021/12/21 10:26:26;;;;;;;20.38;12.57;;;;;;;-0.76;90.01;102721.34;5016207;28;20072;-86
2021/12/21 10:29:00;;;;;;;22.98;11.07;;;;;;;-0.65;90.95;102716.72;5032820;28;20037;-86
2021/12/21 10:31:27;;;;;;;26.75;12.05;;;;;;;-0.59;91.03;102727.47;5015760;28;20073;-86
2021/12/21 10:33:56;;;;;;;24.15;12.85;;;;;;;-0.47;90.43;102730.72;5034019;28;20480;-86
2021/12/21 10:36:24;;;;;;;28.20;11.82;;;;;;;-0.38;89.33;102719.91;5033993;28;20041;-86
2021/12/21 10:38:55;;;;;;;22.30;10.65;;;;;;;-0.34;88.40;102721.84;5033248;28;20030;-86
2021/12/21 10:41:32;;;;;;;27.52;12.07;;;;;;;-0.28;88.96;102714.34;5016937;28;20124;-86
2021/12/21 10:43:59;;;;;;;26.05;11.15;;;;;;;-0.20;88.76;102717.34;5033128;28;20036;-87
2021/12/21 10:46:27;;;;;;;22.02;10.50;;;;;;;-0.13;88.75;102711.66;5033007;28;20032;-87
2021/12/21 10:49:08;;;;;;;22.48;10.80;;;;;;;-0.07;87.93;102711.09;5034231;28;20033;-87
2021/12/21 10:51:34;;;;;;;27.85;12.65;;;;;;;-0.01;87.55;102714.00;5032261;28;20060;-87
2021/12/21 10:54:00;;;;;;;22.00;10.40;;;;;;;0.01;87.21;102716.69;5015628;28;20029;-88
2021/12/21 10:56:26;;;;;;;22.40;12.02;;;;;;;0.05;87.07;102708.22;5032851;28;20456;-87
2021/12/21 10:58:51;;;;;;;26.35;11.30;;;;;;;0.11;86.22;102716.34;5002123;28;20029;-86
2021/12/21 11:01:23;;;;;;;24.70;10.25;;;;;;;0.18;87.55;102706.31;5051581;28;20043;-87
2021/12/21 11:03:53;;;;;;;;;;;;;;;0.26;88.28;102716.22;5052293;28;20043;-87
2021/12/21 11:06:31;;;;;;;19.35;10.25;;;;;;;0.29;86.69;102706.84;5051343;28;19923;-87
2021/12/21 11:08:57;;;;;;;21.58;10.00;;;;;;;0.35;87.03;102711.50;5035363;28;20048;-87
2021/12/21 11:11:30;;;;;;;19.15;8.98;;;;;;;0.39;84.88;102705.59;5035560;28;20041;-87
2021/12/21 11:13:58;;;;;;;19.10;9.02;;;;;;;0.47;84.65;102706.88;5051896;28;20489;-87
2021/12/21 11:16:41;;;;;;;21.23;9.48;;;;;;;0.54;85.50;102702.84;5035042;28;20496;-86
2021/12/21 11:19:08;;;;;;;21.90;10.48;;;;;;;0.59;84.70;102686.63;5052673;28;20044;-85
2021/12/21 11:21:34;;;;;;;15.15;9.10;;;;;;;0.69;84.41;102687.06;5051222;28;20456;-86
2021/12/21 11:24:03;;;;;;;20.58;9.77;;;;;;;0.70;84.49;102670.59;5052766;28;20155;-87
2021/12/21 11:26:31;;;;;;;19.40;9.48;;;;;;;0.80;84.04;102672.81;5051489;28;20035;-87
2021/12/21 11:29:01;;;;;;;18.35;8.95;;;;;;;0.83;84.38;102658.19;5031853;28;20037;-87
2021/12/21 11:31:27;;;;;;;20.35;10.50;;;;;;;0.90;83.65;102654.19;5032428;28;20052;-87
2021/12/21 11:33:57;;;;;;;28.98;10.85;;;;;;;0.97;83.72;102653.66;4997976;28;20033;-86
2021/12/21 11:39:08;;;;;;;20.00;10.95;;;;;;;1.32;88.45;102641.31;5032053;28;20123;-86
2021/12/21 11:41:36;;;;;;;19.38;10.35;;;;;;;1.52;86.02;102641.31;5031418;28;20475;-87
2021/12/21 11:44:21;;;;;;;19.77;9.25;;;;;;;1.68;84.98;102646.34;5032010;28;20137;-87
2021/12/21 11:46:54;;;;;;;24.73;10.90;;;;;;;1.97;88.91;102645.00;5015749;28;20374;-87
2021/12/21 11:49:29;;;;;;;24.05;11.13;;;;;;;2.30;92.47;102640.28;5032330;28;20095;-87
2021/12/21 11:52:16;;;;;;;19.90;9.85;;;;;;;2.61;90.77;102641.50;5014674;28;20116;-88
2021/12/21 11:55:03;;;;;;;18.05;9.55;;;;;;;2.80;87.10;102637.91;5031128;28;20040;-88
2021/12/21 11:57:38;;;;;;;21.00;8.85;;;;;;;2.88;84.90;102639.09;5031329;28;20087;-88
2021/12/21 12:00:09;;;;;;;16.38;8.93;;;;;;;2.99;82.60;102637.78;5030517;28;20040;-88
2021/12/21 12:02:38;;;;;;;16.73;7.93;;;;;;;3.21;84.25;102639.50;5050479;28;20112;-89
2021/12/21 12:05:21;;;;;;;22.73;8.05;;;;;;;3.32;80.09;102632.00;5034513;28;20048;-89
2021/12/21 12:08:15;;;;;;;16.40;8.02;;;;;;;3.35;79.01;102642.59;5051332;28;20203;-88
2021/12/21 12:11:01;;;;;;;12.13;6.97;;;;;;;3.21;79.16;102630.72;5033932;28;20140;-88
2021/12/21 12:13:31;;;;;;;16.40;6.40;;;;;;;3.09;77.25;102632.88;5034063;28;20461;-88
2021/12/21 12:16:08;;;;;;;18.20;7.20;;;;;;;3.06;77.52;102638.00;5034083;28;20081;-88